sensor_id;sensor_type;location;lat;lon;timestamp;P1;durP1;ratioP1;P2;durP2;ratioP2
52542;SDS011;38449;52.696;6.186;2023-01-26T00:01:55;53.42;;;25.40;;
52542;SDS011;38449;52.696;6.186;2023-01-26T00:04:21;54.88;;;26.10;;
52542;SDS011;38449;52.696;6.186;2023-01-26T00:06:47;49.15;;;22.98;;
52542;SDS011;38449;52.696;6.186;2023-01-26T00:09:14;56.92;;;25.02;;
52542;SDS011;38449;52.696;6.186;2023-01-26T00:11:41;56.38;;;26.25;;
52542;SDS011;38449;52.696;6.186;2023-01-26T00:14:10;50.40;;;23.40;;
52542;SDS011;38449;52.696;6.186;2023-01-26T00:16:36;56.25;;;26.27;;
52542;SDS011;38449;52.696;6.186;2023-01-26T00:19:02;56.53;;;25.35;;
52542;SDS011;38449;52.696;6.186;2023-01-26T00:21:28;52.28;;;24.92;;
52542;SDS011;38449;52.696;6.186;2023-01-26T00:23:54;55.00;;;25.63;;
52542;SDS011;38449;52.696;6.186;2023-01-26T00:26:21;58.05;;;26.50;;
52542;SDS011;38449;52.696;6.186;2023-01-26T00:28:47;62.78;;;26.25;;
52542;SDS011;38449;52.696;6.186;2023-01-26T00:31:15;52.47;;;24.85;;
52542;SDS011;38449;52.696;6.186;2023-01-26T00:33:41;57.53;;;25.75;;
52542;SDS011;38449;52.696;6.186;2023-01-26T00:36:07;62.40;;;26.48;;
52542;SDS011;38449;52.696;6.186;2023-01-26T00:38:33;63.95;;;27.00;;
52542;SDS011;38449;52.696;6.186;2023-01-26T00:41:00;60.00;;;26.67;;
52542;SDS011;38449;52.696;6.186;2023-01-26T00:43:26;53.78;;;24.23;;
52542;SDS011;38449;52.696;6.186;2023-01-26T00:45:52;61.67;;;27.38;;
52542;SDS011;38449;52.696;6.186;2023-01-26T00:48:18;60.03;;;26.35;;
52542;SDS011;38449;52.696;6.186;2023-01-26T00:50:44;60.53;;;25.33;;
52542;SDS011;38449;52.696;6.186;2023-01-26T00:53:10;59.80;;;26.65;;
52542;SDS011;38449;52.696;6.186;2023-01-26T00:55:36;59.13;;;25.17;;
52542;SDS011;38449;52.696;6.186;2023-01-26T00:58:06;55.78;;;24.55;;
52542;SDS011;38449;52.696;6.186;2023-01-26T01:00:34;54.90;;;23.55;;
52542;SDS011;38449;52.696;6.186;2023-01-26T01:03:01;54.92;;;25.17;;
52542;SDS011;38449;52.696;6.186;2023-01-26T01:05:30;50.88;;;23.98;;
52542;SDS011;38449;52.696;6.186;2023-01-26T01:07:56;56.13;;;25.13;;
52542;SDS011;38449;52.696;6.186;2023-01-26T01:10:22;46.03;;;21.92;;
52542;SDS011;38449;52.696;6.186;2023-01-26T01:12:49;54.83;;;23.67;;
52542;SDS011;38449;52.696;6.186;2023-01-26T01:15:15;55.67;;;24.50;;
52542;SDS011;38449;52.696;6.186;2023-01-26T01:17:41;58.63;;;25.73;;
52542;SDS011;38449;52.696;6.186;2023-01-26T01:20:08;52.90;;;23.60;;
52542;SDS011;38449;52.696;6.186;2023-01-26T01:22:34;55.53;;;23.48;;
52542;SDS011;38449;52.696;6.186;2023-01-26T01:25:01;49.95;;;22.20;;
52542;SDS011;38449;52.696;6.186;2023-01-26T01:27:27;54.58;;;23.42;;
52542;SDS011;38449;52.696;6.186;2023-01-26T01:29:54;53.35;;;23.58;;
52542;SDS011;38449;52.696;6.186;2023-01-26T01:32:21;51.20;;;21.95;;
52542;SDS011;38449;52.696;6.186;2023-01-26T01:34:47;62.95;;;26.35;;
52542;SDS011;38449;52.696;6.186;2023-01-26T01:37:13;55.30;;;23.63;;
52542;SDS011;38449;52.696;6.186;2023-01-26T01:39:47;53.10;;;23.95;;
52542;SDS011;38449;52.696;6.186;2023-01-26T01:42:13;54.85;;;23.65;;
52542;SDS011;38449;52.696;6.186;2023-01-26T01:44:41;57.88;;;24.55;;
52542;SDS011;38449;52.696;6.186;2023-01-26T01:47:16;51.75;;;23.67;;
52542;SDS011;38449;52.696;6.186;2023-01-26T01:49:45;60.08;;;26.00;;
52542;SDS011;38449;52.696;6.186;2023-01-26T01:52:16;57.17;;;24.30;;
52542;SDS011;38449;52.696;6.186;2023-01-26T01:54:50;57.25;;;24.05;;
52542;SDS011;38449;52.696;6.186;2023-01-26T01:57:26;64.05;;;25.42;;
52542;SDS011;38449;52.696;6.186;2023-01-26T02:00:06;61.33;;;25.00;;
52542;SDS011;38449;52.696;6.186;2023-01-26T02:02:33;55.95;;;24.33;;
52542;SDS011;38449;52.696;6.186;2023-01-26T02:04:59;65.78;;;25.10;;
52542;SDS011;38449;52.696;6.186;2023-01-26T02:07:28;64.15;;;26.05;;
52542;SDS011;38449;52.696;6.186;2023-01-26T02:09:55;58.88;;;24.08;;
52542;SDS011;38449;52.696;6.186;2023-01-26T02:12:40;64.10;;;26.63;;
52542;SDS011;38449;52.696;6.186;2023-01-26T02:15:06;61.78;;;25.52;;
52542;SDS011;38449;52.696;6.186;2023-01-26T02:17:32;55.83;;;24.52;;
52542;SDS011;38449;52.696;6.186;2023-01-26T02:20:03;55.50;;;23.23;;
52542;SDS011;38449;52.696;6.186;2023-01-26T02:22:41;57.30;;;24.85;;
52542;SDS011;38449;52.696;6.186;2023-01-26T02:25:46;65.93;;;27.23;;
52542;SDS011;38449;52.696;6.186;2023-01-26T02:28:02;63.88;;;26.35;;
52542;SDS011;38449;52.696;6.186;2023-01-26T02:30:28;60.40;;;25.25;;
52542;SDS011;38449;52.696;6.186;2023-01-26T02:32:55;55.25;;;23.83;;
52542;SDS011;38449;52.696;6.186;2023-01-26T02:35:21;62.90;;;25.38;;
52542;SDS011;38449;52.696;6.186;2023-01-26T02:37:47;55.30;;;24.35;;
52542;SDS011;38449;52.696;6.186;2023-01-26T02:40:24;58.70;;;23.70;;
52542;SDS011;38449;52.696;6.186;2023-01-26T02:42:53;51.15;;;23.00;;
52542;SDS011;38449;52.696;6.186;2023-01-26T02:45:20;59.28;;;24.95;;
52542;SDS011;38449;52.696;6.186;2023-01-26T02:47:46;58.28;;;25.25;;
52542;SDS011;38449;52.696;6.186;2023-01-26T02:50:12;55.53;;;24.95;;
52542;SDS011;38449;52.696;6.186;2023-01-26T02:52:38;60.45;;;24.67;;
52542;SDS011;38449;52.696;6.186;2023-01-26T02:55:05;56.05;;;25.13;;
52542;SDS011;38449;52.696;6.186;2023-01-26T02:57:48;62.47;;;25.23;;
52542;SDS011;38449;52.696;6.186;2023-01-26T03:00:20;69.53;;;26.00;;
52542;SDS011;38449;52.696;6.186;2023-01-26T03:02:46;62.70;;;25.17;;
52542;SDS011;38449;52.696;6.186;2023-01-26T03:05:13;59.47;;;25.15;;
52542;SDS011;38449;52.696;6.186;2023-01-26T03:07:39;57.33;;;23.65;;
52542;SDS011;38449;52.696;6.186;2023-01-26T03:10:05;68.70;;;27.05;;
52542;SDS011;38449;52.696;6.186;2023-01-26T03:12:31;57.13;;;25.05;;
52542;SDS011;38449;52.696;6.186;2023-01-26T03:14:58;60.85;;;25.73;;
52542;SDS011;38449;52.696;6.186;2023-01-26T03:17:50;65.15;;;26.67;;
52542;SDS011;38449;52.696;6.186;2023-01-26T03:20:37;62.38;;;26.10;;
52542;SDS011;38449;52.696;6.186;2023-01-26T03:23:22;58.38;;;26.55;;
52542;SDS011;38449;52.696;6.186;2023-01-26T03:26:08;58.33;;;25.48;;
52542;SDS011;38449;52.696;6.186;2023-01-26T03:28:53;60.00;;;24.67;;
52542;SDS011;38449;52.696;6.186;2023-01-26T03:31:19;56.95;;;25.15;;
52542;SDS011;38449;52.696;6.186;2023-01-26T03:33:45;58.00;;;25.23;;
52542;SDS011;38449;52.696;6.186;2023-01-26T03:36:11;50.35;;;22.30;;
52542;SDS011;38449;52.696;6.186;2023-01-26T03:38:37;52.88;;;22.88;;
52542;SDS011;38449;52.696;6.186;2023-01-26T03:41:06;55.53;;;23.42;;
52542;SDS011;38449;52.696;6.186;2023-01-26T03:43:51;43.63;;;20.65;;
52542;SDS011;38449;52.696;6.186;2023-01-26T03:46:36;54.78;;;22.45;;
52542;SDS011;38449;52.696;6.186;2023-01-26T03:49:20;44.33;;;21.05;;
52542;SDS011;38449;52.696;6.186;2023-01-26T03:52:05;48.05;;;21.80;;
52542;SDS011;38449;52.696;6.186;2023-01-26T03:54:50;42.70;;;20.25;;
52542;SDS011;38449;52.696;6.186;2023-01-26T03:57:35;44.08;;;20.05;;
52542;SDS011;38449;52.696;6.186;2023-01-26T04:00:01;46.83;;;21.00;;
52542;SDS011;38449;52.696;6.186;2023-01-26T04:02:27;43.85;;;20.95;;
52542;SDS011;38449;52.696;6.186;2023-01-26T04:05:11;48.03;;;21.35;;
52542;SDS011;38449;52.696;6.186;2023-01-26T04:08:03;47.13;;;21.50;;
52542;SDS011;38449;52.696;6.186;2023-01-26T04:10:45;43.42;;;20.48;;
52542;SDS011;38449;52.696;6.186;2023-01-26T04:13:11;44.33;;;20.08;;
52542;SDS011;38449;52.696;6.186;2023-01-26T04:15:56;48.28;;;22.33;;
52542;SDS011;38449;52.696;6.186;2023-01-26T04:18:40;54.70;;;24.10;;
52542;SDS011;38449;52.696;6.186;2023-01-26T04:21:25;49.88;;;22.40;;
52542;SDS011;38449;52.696;6.186;2023-01-26T04:23:56;51.83;;;23.45;;
52542;SDS011;38449;52.696;6.186;2023-01-26T04:26:25;48.03;;;21.73;;
52542;SDS011;38449;52.696;6.186;2023-01-26T04:28:58;43.42;;;21.73;;
52542;SDS011;38449;52.696;6.186;2023-01-26T04:31:24;45.88;;;21.27;;
52542;SDS011;38449;52.696;6.186;2023-01-26T04:33:50;46.22;;;22.27;;
52542;SDS011;38449;52.696;6.186;2023-01-26T04:36:16;49.70;;;22.60;;
52542;SDS011;38449;52.696;6.186;2023-01-26T04:38:42;50.95;;;22.38;;
52542;SDS011;38449;52.696;6.186;2023-01-26T04:41:18;50.97;;;22.58;;
52542;SDS011;38449;52.696;6.186;2023-01-26T04:43:47;46.20;;;22.25;;
52542;SDS011;38449;52.696;6.186;2023-01-26T04:46:18;46.85;;;21.02;;
52542;SDS011;38449;52.696;6.186;2023-01-26T04:48:45;47.78;;;21.67;;
52542;SDS011;38449;52.696;6.186;2023-01-26T04:51:12;52.45;;;24.00;;
52542;SDS011;38449;52.696;6.186;2023-01-26T04:53:38;48.90;;;22.30;;
52542;SDS011;38449;52.696;6.186;2023-01-26T04:56:04;51.30;;;22.75;;
52542;SDS011;38449;52.696;6.186;2023-01-26T04:58:31;54.08;;;23.05;;
52542;SDS011;38449;52.696;6.186;2023-01-26T05:00:57;45.63;;;22.00;;
52542;SDS011;38449;52.696;6.186;2023-01-26T05:03:24;55.50;;;23.38;;
52542;SDS011;38449;52.696;6.186;2023-01-26T05:05:51;54.65;;;21.75;;
52542;SDS011;38449;52.696;6.186;2023-01-26T05:08:18;46.70;;;22.40;;
52542;SDS011;38449;52.696;6.186;2023-01-26T05:10:44;51.55;;;23.10;;
52542;SDS011;38449;52.696;6.186;2023-01-26T05:13:11;54.08;;;22.17;;
52542;SDS011;38449;52.696;6.186;2023-01-26T05:15:39;52.72;;;22.55;;
52542;SDS011;38449;52.696;6.186;2023-01-26T05:18:05;58.05;;;24.88;;
52542;SDS011;38449;52.696;6.186;2023-01-26T05:20:31;52.45;;;23.30;;
52542;SDS011;38449;52.696;6.186;2023-01-26T05:22:58;49.75;;;22.75;;
52542;SDS011;38449;52.696;6.186;2023-01-26T05:25:24;58.65;;;24.77;;
52542;SDS011;38449;52.696;6.186;2023-01-26T05:27:50;63.17;;;24.02;;
52542;SDS011;38449;52.696;6.186;2023-01-26T05:30:17;56.28;;;24.95;;
52542;SDS011;38449;52.696;6.186;2023-01-26T05:32:43;54.08;;;24.33;;
52542;SDS011;38449;52.696;6.186;2023-01-26T05:35:09;56.47;;;25.02;;
52542;SDS011;38449;52.696;6.186;2023-01-26T05:37:35;56.13;;;24.98;;
52542;SDS011;38449;52.696;6.186;2023-01-26T05:40:02;57.10;;;24.42;;
52542;SDS011;38449;52.696;6.186;2023-01-26T05:42:28;51.65;;;23.83;;
52542;SDS011;38449;52.696;6.186;2023-01-26T05:44:54;63.97;;;26.05;;
52542;SDS011;38449;52.696;6.186;2023-01-26T05:47:20;52.22;;;25.27;;
52542;SDS011;38449;52.696;6.186;2023-01-26T05:49:46;53.97;;;24.52;;
52542;SDS011;38449;52.696;6.186;2023-01-26T05:52:13;67.60;;;26.33;;
52542;SDS011;38449;52.696;6.186;2023-01-26T05:54:40;74.07;;;27.60;;
52542;SDS011;38449;52.696;6.186;2023-01-26T05:57:06;62.58;;;27.23;;
52542;SDS011;38449;52.696;6.186;2023-01-26T05:59:32;67.43;;;27.63;;
52542;SDS011;38449;52.696;6.186;2023-01-26T06:02:01;57.42;;;24.65;;
52542;SDS011;38449;52.696;6.186;2023-01-26T06:04:27;63.67;;;25.80;;
52542;SDS011;38449;52.696;6.186;2023-01-26T06:06:53;66.75;;;26.60;;
52542;SDS011;38449;52.696;6.186;2023-01-26T06:09:19;62.13;;;26.48;;
52542;SDS011;38449;52.696;6.186;2023-01-26T06:11:45;63.08;;;27.08;;
52542;SDS011;38449;52.696;6.186;2023-01-26T06:14:12;57.28;;;25.67;;
52542;SDS011;38449;52.696;6.186;2023-01-26T06:16:38;73.85;;;29.80;;
52542;SDS011;38449;52.696;6.186;2023-01-26T06:19:04;68.78;;;26.23;;
52542;SDS011;38449;52.696;6.186;2023-01-26T06:21:30;64.40;;;26.58;;
52542;SDS011;38449;52.696;6.186;2023-01-26T06:23:57;69.30;;;27.35;;
52542;SDS011;38449;52.696;6.186;2023-01-26T06:26:23;67.30;;;26.65;;
52542;SDS011;38449;52.696;6.186;2023-01-26T06:28:49;72.65;;;28.50;;
52542;SDS011;38449;52.696;6.186;2023-01-26T06:31:16;68.38;;;28.00;;
52542;SDS011;38449;52.696;6.186;2023-01-26T06:33:42;79.05;;;29.88;;
52542;SDS011;38449;52.696;6.186;2023-01-26T06:36:09;77.50;;;29.80;;
52542;SDS011;38449;52.696;6.186;2023-01-26T06:38:46;80.53;;;30.70;;
52542;SDS011;38449;52.696;6.186;2023-01-26T06:41:18;70.63;;;29.48;;
52542;SDS011;38449;52.696;6.186;2023-01-26T06:43:45;68.65;;;28.98;;
52542;SDS011;38449;52.696;6.186;2023-01-26T06:46:11;72.50;;;30.15;;
52542;SDS011;38449;52.696;6.186;2023-01-26T06:48:37;73.65;;;28.15;;
52542;SDS011;38449;52.696;6.186;2023-01-26T06:51:05;92.97;;;32.08;;
52542;SDS011;38449;52.696;6.186;2023-01-26T06:53:53;86.38;;;30.85;;
52542;SDS011;38449;52.696;6.186;2023-01-26T06:56:20;85.95;;;31.73;;
52542;SDS011;38449;52.696;6.186;2023-01-26T06:58:46;82.90;;;30.70;;
52542;SDS011;38449;52.696;6.186;2023-01-26T07:01:19;71.03;;;28.98;;
52542;SDS011;38449;52.696;6.186;2023-01-26T07:03:52;94.38;;;31.38;;
52542;SDS011;38449;52.696;6.186;2023-01-26T07:06:18;92.25;;;31.30;;
52542;SDS011;38449;52.696;6.186;2023-01-26T07:08:44;81.72;;;28.95;;
52542;SDS011;38449;52.696;6.186;2023-01-26T07:11:10;113.07;;;35.47;;
52542;SDS011;38449;52.696;6.186;2023-01-26T07:13:36;88.80;;;31.13;;
52542;SDS011;38449;52.696;6.186;2023-01-26T07:16:03;102.97;;;33.58;;
52542;SDS011;38449;52.696;6.186;2023-01-26T07:18:30;94.07;;;32.70;;
52542;SDS011;38449;52.696;6.186;2023-01-26T07:21:05;94.65;;;32.03;;
52542;SDS011;38449;52.696;6.186;2023-01-26T07:25:57;110.05;;;33.20;;
52542;SDS011;38449;52.696;6.186;2023-01-26T07:28:24;99.85;;;32.83;;
52542;SDS011;38449;52.696;6.186;2023-01-26T07:30:50;101.88;;;33.35;;
52542;SDS011;38449;52.696;6.186;2023-01-26T07:33:16;93.13;;;30.55;;
52542;SDS011;38449;52.696;6.186;2023-01-26T07:35:42;107.80;;;33.90;;
52542;SDS011;38449;52.696;6.186;2023-01-26T07:38:08;118.20;;;32.83;;
52542;SDS011;38449;52.696;6.186;2023-01-26T07:40:35;116.25;;;31.23;;
52542;SDS011;38449;52.696;6.186;2023-01-26T07:43:01;125.30;;;33.58;;
52542;SDS011;38449;52.696;6.186;2023-01-26T07:45:32;111.68;;;32.58;;
52542;SDS011;38449;52.696;6.186;2023-01-26T07:48:01;124.88;;;31.92;;
52542;SDS011;38449;52.696;6.186;2023-01-26T07:50:27;116.47;;;31.90;;
52542;SDS011;38449;52.696;6.186;2023-01-26T07:52:53;105.93;;;31.70;;
52542;SDS011;38449;52.696;6.186;2023-01-26T07:55:19;123.28;;;32.92;;
52542;SDS011;38449;52.696;6.186;2023-01-26T07:57:47;119.68;;;30.70;;
52542;SDS011;38449;52.696;6.186;2023-01-26T08:00:13;123.70;;;31.23;;
52542;SDS011;38449;52.696;6.186;2023-01-26T08:02:39;92.95;;;30.17;;
52542;SDS011;38449;52.696;6.186;2023-01-26T08:05:06;113.32;;;30.92;;
52542;SDS011;38449;52.696;6.186;2023-01-26T08:07:32;102.60;;;29.92;;
52542;SDS011;38449;52.696;6.186;2023-01-26T08:09:58;99.93;;;28.92;;
52542;SDS011;38449;52.696;6.186;2023-01-26T08:12:24;82.10;;;26.88;;
52542;SDS011;38449;52.696;6.186;2023-01-26T08:14:50;89.43;;;28.48;;
52542;SDS011;38449;52.696;6.186;2023-01-26T08:17:16;76.22;;;26.48;;
52542;SDS011;38449;52.696;6.186;2023-01-26T08:19:43;87.10;;;28.70;;
52542;SDS011;38449;52.696;6.186;2023-01-26T08:22:09;79.68;;;26.75;;
52542;SDS011;38449;52.696;6.186;2023-01-26T08:24:36;79.78;;;27.55;;
52542;SDS011;38449;52.696;6.186;2023-01-26T08:27:02;79.97;;;26.77;;
52542;SDS011;38449;52.696;6.186;2023-01-26T08:29:28;87.80;;;26.55;;
52542;SDS011;38449;52.696;6.186;2023-01-26T08:31:54;80.38;;;25.73;;
52542;SDS011;38449;52.696;6.186;2023-01-26T08:34:20;72.45;;;25.98;;
52542;SDS011;38449;52.696;6.186;2023-01-26T08:36:47;79.97;;;26.25;;
52542;SDS011;38449;52.696;6.186;2023-01-26T08:39:14;64.63;;;23.40;;
52542;SDS011;38449;52.696;6.186;2023-01-26T08:41:41;70.13;;;23.83;;
52542;SDS011;38449;52.696;6.186;2023-01-26T08:44:08;67.22;;;22.13;;
52542;SDS011;38449;52.696;6.186;2023-01-26T08:46:39;67.57;;;21.00;;
52542;SDS011;38449;52.696;6.186;2023-01-26T08:49:25;69.88;;;20.52;;
52542;SDS011;38449;52.696;6.186;2023-01-26T08:51:51;53.00;;;18.90;;
52542;SDS011;38449;52.696;6.186;2023-01-26T08:54:19;57.10;;;18.38;;
52542;SDS011;38449;52.696;6.186;2023-01-26T08:56:49;55.67;;;18.85;;
52542;SDS011;38449;52.696;6.186;2023-01-26T08:59:17;47.45;;;15.57;;
52542;SDS011;38449;52.696;6.186;2023-01-26T09:01:44;54.00;;;15.77;;
52542;SDS011;38449;52.696;6.186;2023-01-26T09:04:10;54.28;;;16.35;;
52542;SDS011;38449;52.696;6.186;2023-01-26T09:06:36;62.17;;;17.63;;
52542;SDS011;38449;52.696;6.186;2023-01-26T09:09:02;47.05;;;15.80;;
52542;SDS011;38449;52.696;6.186;2023-01-26T09:11:28;49.70;;;15.40;;
52542;SDS011;38449;52.696;6.186;2023-01-26T09:13:54;48.30;;;15.23;;
52542;SDS011;38449;52.696;6.186;2023-01-26T09:16:23;53.25;;;14.98;;
52542;SDS011;38449;52.696;6.186;2023-01-26T09:18:52;48.90;;;16.40;;
52542;SDS011;38449;52.696;6.186;2023-01-26T09:21:19;45.70;;;15.27;;
52542;SDS011;38449;52.696;6.186;2023-01-26T09:23:45;42.03;;;13.93;;
52542;SDS011;38449;52.696;6.186;2023-01-26T09:26:11;43.97;;;12.95;;
52542;SDS011;38449;52.696;6.186;2023-01-26T09:28:37;43.58;;;12.77;;
52542;SDS011;38449;52.696;6.186;2023-01-26T09:31:04;46.80;;;14.20;;
52542;SDS011;38449;52.696;6.186;2023-01-26T09:33:30;45.38;;;11.48;;
52542;SDS011;38449;52.696;6.186;2023-01-26T09:36:01;39.20;;;11.70;;
52542;SDS011;38449;52.696;6.186;2023-01-26T09:38:30;46.67;;;11.32;;
52542;SDS011;38449;52.696;6.186;2023-01-26T09:43:43;38.92;;;10.57;;
52542;SDS011;38449;52.696;6.186;2023-01-26T09:48:43;40.60;;;10.82;;
52542;SDS011;38449;52.696;6.186;2023-01-26T09:51:31;39.63;;;9.73;;
52542;SDS011;38449;52.696;6.186;2023-01-26T09:54:00;38.15;;;9.02;;
52542;SDS011;38449;52.696;6.186;2023-01-26T09:56:29;37.83;;;9.23;;
52542;SDS011;38449;52.696;6.186;2023-01-26T09:59:10;29.63;;;9.02;;
52542;SDS011;38449;52.696;6.186;2023-01-26T10:01:48;35.55;;;8.77;;
52542;SDS011;38449;52.696;6.186;2023-01-26T10:04:26;29.45;;;8.30;;
52542;SDS011;38449;52.696;6.186;2023-01-26T10:06:56;35.55;;;7.88;;
52542;SDS011;38449;52.696;6.186;2023-01-26T10:09:24;33.88;;;8.18;;
52542;SDS011;38449;52.696;6.186;2023-01-26T10:11:55;33.30;;;7.15;;
52542;SDS011;38449;52.696;6.186;2023-01-26T10:14:36;34.40;;;6.35;;
52542;SDS011;38449;52.696;6.186;2023-01-26T10:17:06;27.52;;;6.07;;
52542;SDS011;38449;52.696;6.186;2023-01-26T10:19:37;32.55;;;5.32;;
52542;SDS011;38449;52.696;6.186;2023-01-26T10:22:07;24.13;;;5.28;;
52542;SDS011;38449;52.696;6.186;2023-01-26T10:24:37;29.88;;;5.72;;
52542;SDS011;38449;52.696;6.186;2023-01-26T10:27:05;31.80;;;5.90;;
52542;SDS011;38449;52.696;6.186;2023-01-26T10:29:35;28.33;;;6.10;;
52542;SDS011;38449;52.696;6.186;2023-01-26T10:32:02;34.25;;;6.75;;
52542;SDS011;38449;52.696;6.186;2023-01-26T10:34:28;33.08;;;5.15;;
52542;SDS011;38449;52.696;6.186;2023-01-26T10:37:32;26.67;;;4.68;;
52542;SDS011;38449;52.696;6.186;2023-01-26T10:39:57;24.55;;;4.70;;
52542;SDS011;38449;52.696;6.186;2023-01-26T10:42:26;27.38;;;5.47;;
52542;SDS011;38449;52.696;6.186;2023-01-26T10:44:52;31.10;;;5.55;;
52542;SDS011;38449;52.696;6.186;2023-01-26T10:47:18;21.63;;;4.47;;
52542;SDS011;38449;52.696;6.186;2023-01-26T10:49:47;28.00;;;5.15;;
52542;SDS011;38449;52.696;6.186;2023-01-26T10:52:19;33.38;;;4.75;;
52542;SDS011;38449;52.696;6.186;2023-01-26T10:57:38;36.72;;;5.28;;
52542;SDS011;38449;52.696;6.186;2023-01-26T11:00:05;27.73;;;4.38;;
52542;SDS011;38449;52.696;6.186;2023-01-26T11:02:34;27.75;;;4.47;;
52542;SDS011;38449;52.696;6.186;2023-01-26T11:07:37;28.95;;;4.70;;
52542;SDS011;38449;52.696;6.186;2023-01-26T11:15:22;23.38;;;4.55;;
52542;SDS011;38449;52.696;6.186;2023-01-26T11:20:26;22.55;;;4.68;;
52542;SDS011;38449;52.696;6.186;2023-01-26T11:23:01;18.60;;;3.53;;
52542;SDS011;38449;52.696;6.186;2023-01-26T11:25:33;26.55;;;5.18;;
52542;SDS011;38449;52.696;6.186;2023-01-26T11:33:24;21.02;;;4.43;;
52542;SDS011;38449;52.696;6.186;2023-01-26T11:35:56;20.88;;;4.05;;
52542;SDS011;38449;52.696;6.186;2023-01-26T11:51:57;17.83;;;3.75;;
52542;SDS011;38449;52.696;6.186;2023-01-26T11:59:15;19.67;;;3.28;;
52542;SDS011;38449;52.696;6.186;2023-01-26T12:01:53;16.10;;;3.25;;
52542;SDS011;38449;52.696;6.186;2023-01-26T12:04:24;24.33;;;4.65;;
52542;SDS011;38449;52.696;6.186;2023-01-26T12:07:05;20.85;;;3.60;;
52542;SDS011;38449;52.696;6.186;2023-01-26T12:09:36;15.85;;;3.30;;
52542;SDS011;38449;52.696;6.186;2023-01-26T12:12:11;19.17;;;3.83;;
52542;SDS011;38449;52.696;6.186;2023-01-26T12:14:48;11.57;;;2.80;;
52542;SDS011;38449;52.696;6.186;2023-01-26T12:17:26;20.60;;;3.20;;
52542;SDS011;38449;52.696;6.186;2023-01-26T12:20:00;18.13;;;3.03;;
52542;SDS011;38449;52.696;6.186;2023-01-26T12:25:21;18.48;;;2.95;;
52542;SDS011;38449;52.696;6.186;2023-01-26T12:27:55;18.20;;;3.15;;
52542;SDS011;38449;52.696;6.186;2023-01-26T12:32:50;22.98;;;4.55;;
52542;SDS011;38449;52.696;6.186;2023-01-26T12:35:24;18.17;;;3.53;;
52542;SDS011;38449;52.696;6.186;2023-01-26T12:37:55;17.75;;;3.33;;
52542;SDS011;38449;52.696;6.186;2023-01-26T12:40:25;19.17;;;3.30;;
52542;SDS011;38449;52.696;6.186;2023-01-26T12:45:49;16.70;;;3.13;;
52542;SDS011;38449;52.696;6.186;2023-01-26T12:48:26;16.70;;;3.05;;
52542;SDS011;38449;52.696;6.186;2023-01-26T12:51:00;14.57;;;3.15;;
52542;SDS011;38449;52.696;6.186;2023-01-26T12:54:36;18.52;;;3.25;;
52542;SDS011;38449;52.696;6.186;2023-01-26T12:56:36;12.93;;;2.33;;
52542;SDS011;38449;52.696;6.186;2023-01-26T12:59:06;10.98;;;2.50;;
52542;SDS011;38449;52.696;6.186;2023-01-26T13:01:37;15.35;;;2.60;;
52542;SDS011;38449;52.696;6.186;2023-01-26T13:04:07;14.65;;;2.42;;
52542;SDS011;38449;52.696;6.186;2023-01-26T13:06:34;13.77;;;2.20;;
52542;SDS011;38449;52.696;6.186;2023-01-26T13:09:16;12.82;;;2.55;;
52542;SDS011;38449;52.696;6.186;2023-01-26T13:11:44;14.95;;;2.58;;
52542;SDS011;38449;52.696;6.186;2023-01-26T13:19:39;11.50;;;1.95;;
52542;SDS011;38449;52.696;6.186;2023-01-26T13:34:57;15.38;;;2.72;;
52542;SDS011;38449;52.696;6.186;2023-01-26T13:43:05;14.38;;;2.35;;
52542;SDS011;38449;52.696;6.186;2023-01-26T13:45:36;9.20;;;2.15;;
52542;SDS011;38449;52.696;6.186;2023-01-26T13:48:04;15.75;;;2.65;;
52542;SDS011;38449;52.696;6.186;2023-01-26T13:50:34;12.55;;;2.70;;
52542;SDS011;38449;52.696;6.186;2023-01-26T13:53:02;11.82;;;1.90;;
52542;SDS011;38449;52.696;6.186;2023-01-26T13:55:48;11.32;;;1.90;;
52542;SDS011;38449;52.696;6.186;2023-01-26T13:58:16;12.27;;;2.50;;
52542;SDS011;38449;52.696;6.186;2023-01-26T14:01:05;10.85;;;2.22;;
52542;SDS011;38449;52.696;6.186;2023-01-26T14:03:30;10.02;;;2.00;;
52542;SDS011;38449;52.696;6.186;2023-01-26T14:08:22;8.32;;;1.90;;
52542;SDS011;38449;52.696;6.186;2023-01-26T14:10:50;12.30;;;2.17;;
52542;SDS011;38449;52.696;6.186;2023-01-26T14:13:25;12.43;;;2.15;;
52542;SDS011;38449;52.696;6.186;2023-01-26T14:15:54;11.52;;;2.40;;
52542;SDS011;38449;52.696;6.186;2023-01-26T14:18:20;9.52;;;1.85;;
52542;SDS011;38449;52.696;6.186;2023-01-26T14:20:46;9.88;;;1.80;;
52542;SDS011;38449;52.696;6.186;2023-01-26T14:23:16;7.93;;;1.85;;
52542;SDS011;38449;52.696;6.186;2023-01-26T14:28:14;11.45;;;1.75;;
52542;SDS011;38449;52.696;6.186;2023-01-26T14:30:40;7.53;;;1.60;;
52542;SDS011;38449;52.696;6.186;2023-01-26T14:33:10;12.57;;;2.58;;
52542;SDS011;38449;52.696;6.186;2023-01-26T14:35:37;8.07;;;1.98;;
52542;SDS011;38449;52.696;6.186;2023-01-26T14:38:04;10.10;;;1.70;;
52542;SDS011;38449;52.696;6.186;2023-01-26T14:40:42;9.98;;;1.70;;
52542;SDS011;38449;52.696;6.186;2023-01-26T14:43:08;9.18;;;1.77;;
52542;SDS011;38449;52.696;6.186;2023-01-26T14:45:35;9.05;;;1.55;;
52542;SDS011;38449;52.696;6.186;2023-01-26T14:48:04;9.85;;;2.05;;
52542;SDS011;38449;52.696;6.186;2023-01-26T14:50:31;9.48;;;3.85;;
52542;SDS011;38449;52.696;6.186;2023-01-26T14:52:57;8.02;;;1.60;;
52542;SDS011;38449;52.696;6.186;2023-01-26T14:57:54;13.70;;;1.77;;
52542;SDS011;38449;52.696;6.186;2023-01-26T15:00:38;11.48;;;1.85;;
52542;SDS011;38449;52.696;6.186;2023-01-26T15:03:05;9.77;;;2.30;;
52542;SDS011;38449;52.696;6.186;2023-01-26T15:05:36;8.25;;;1.80;;
52542;SDS011;38449;52.696;6.186;2023-01-26T15:08:16;8.27;;;2.33;;
52542;SDS011;38449;52.696;6.186;2023-01-26T15:11:01;7.30;;;1.92;;
52542;SDS011;38449;52.696;6.186;2023-01-26T15:13:48;11.65;;;1.98;;
52542;SDS011;38449;52.696;6.186;2023-01-26T15:16:17;10.63;;;2.10;;
52542;SDS011;38449;52.696;6.186;2023-01-26T15:18:56;9.80;;;1.88;;
52542;SDS011;38449;52.696;6.186;2023-01-26T15:21:22;10.80;;;1.90;;
52542;SDS011;38449;52.696;6.186;2023-01-26T15:23:53;10.38;;;2.17;;
52542;SDS011;38449;52.696;6.186;2023-01-26T15:26:30;13.65;;;1.92;;
52542;SDS011;38449;52.696;6.186;2023-01-26T15:28:57;11.18;;;2.20;;
52542;SDS011;38449;52.696;6.186;2023-01-26T15:31:28;9.30;;;2.28;;
52542;SDS011;38449;52.696;6.186;2023-01-26T15:33:55;8.38;;;2.00;;
52542;SDS011;38449;52.696;6.186;2023-01-26T15:38:56;9.82;;;2.17;;
52542;SDS011;38449;52.696;6.186;2023-01-26T15:41:33;11.25;;;2.38;;
52542;SDS011;38449;52.696;6.186;2023-01-26T15:43:59;11.55;;;3.20;;
52542;SDS011;38449;52.696;6.186;2023-01-26T15:46:25;10.30;;;2.40;;
52542;SDS011;38449;52.696;6.186;2023-01-26T15:48:51;13.77;;;2.20;;
52542;SDS011;38449;52.696;6.186;2023-01-26T15:51:17;13.23;;;3.00;;
52542;SDS011;38449;52.696;6.186;2023-01-26T15:53:43;10.23;;;2.53;;
52542;SDS011;38449;52.696;6.186;2023-01-26T15:56:13;15.40;;;3.03;;
52542;SDS011;38449;52.696;6.186;2023-01-26T15:58:39;13.00;;;2.75;;
52542;SDS011;38449;52.696;6.186;2023-01-26T16:01:05;13.10;;;3.38;;
52542;SDS011;38449;52.696;6.186;2023-01-26T16:03:32;12.40;;;3.00;;
52542;SDS011;38449;52.696;6.186;2023-01-26T16:05:59;19.73;;;4.32;;
52542;SDS011;38449;52.696;6.186;2023-01-26T16:08:25;14.80;;;3.47;;